sensor_id;sensor_type;location;lat;lon;timestamp;P1;durP1;ratioP1;P2;durP2;ratioP2
22557;SDS011;11445;53.816;8.902;2024-03-29T00:02:09;2.55;;;2.10;;
22557;SDS011;11445;53.816;8.902;2024-03-29T00:04:35;3.90;;;1.95;;
22557;SDS011;11445;53.816;8.902;2024-03-29T00:07:02;5.25;;;1.70;;
22557;SDS011;11445;53.816;8.902;2024-03-29T00:09:28;5.22;;;1.90;;
22557;SDS011;11445;53.816;8.902;2024-03-29T00:11:54;2.42;;;1.70;;
22557;SDS011;11445;53.816;8.902;2024-03-29T00:14:21;3.58;;;2.15;;
22557;SDS011;11445;53.816;8.902;2024-03-29T00:16:47;8.52;;;1.90;;
22557;SDS011;11445;53.816;8.902;2024-03-29T00:19:13;4.82;;;1.63;;
22557;SDS011;11445;53.816;8.902;2024-03-29T00:21:39;3.60;;;1.55;;
22557;SDS011;11445;53.816;8.902;2024-03-29T00:24:05;7.07;;;2.08;;
22557;SDS011;11445;53.816;8.902;2024-03-29T00:26:32;4.25;;;2.05;;
22557;SDS011;11445;53.816;8.902;2024-03-29T00:28:58;4.38;;;1.92;;
22557;SDS011;11445;53.816;8.902;2024-03-29T00:31:25;2.65;;;1.58;;
22557;SDS011;11445;53.816;8.902;2024-03-29T00:33:51;3.15;;;1.73;;
22557;SDS011;11445;53.816;8.902;2024-03-29T00:36:17;4.15;;;2.17;;
22557;SDS011;11445;53.816;8.902;2024-03-29T00:38:43;4.05;;;1.63;;
22557;SDS011;11445;53.816;8.902;2024-03-29T00:41:09;4.82;;;1.50;;
22557;SDS011;11445;53.816;8.902;2024-03-29T00:43:35;4.03;;;1.77;;
22557;SDS011;11445;53.816;8.902;2024-03-29T00:46:01;4.03;;;1.65;;
22557;SDS011;11445;53.816;8.902;2024-03-29T00:48:30;8.15;;;2.00;;
22557;SDS011;11445;53.816;8.902;2024-03-29T00:50:56;3.13;;;1.60;;
22557;SDS011;11445;53.816;8.902;2024-03-29T00:53:22;4.63;;;1.73;;
22557;SDS011;11445;53.816;8.902;2024-03-29T00:55:48;3.42;;;1.77;;
22557;SDS011;11445;53.816;8.902;2024-03-29T00:58:14;3.45;;;2.00;;
22557;SDS011;11445;53.816;8.902;2024-03-29T01:00:40;1.77;;;1.50;;
22557;SDS011;11445;53.816;8.902;2024-03-29T01:03:06;1.92;;;1.50;;
22557;SDS011;11445;53.816;8.902;2024-03-29T01:05:33;3.30;;;1.85;;
22557;SDS011;11445;53.816;8.902;2024-03-29T01:07:59;3.55;;;1.67;;
22557;SDS011;11445;53.816;8.902;2024-03-29T01:10:25;5.47;;;1.77;;
22557;SDS011;11445;53.816;8.902;2024-03-29T01:12:52;5.95;;;1.60;;
22557;SDS011;11445;53.816;8.902;2024-03-29T01:15:17;8.60;;;1.58;;
22557;SDS011;11445;53.816;8.902;2024-03-29T01:17:43;3.90;;;1.52;;
22557;SDS011;11445;53.816;8.902;2024-03-29T01:20:10;2.95;;;1.63;;
22557;SDS011;11445;53.816;8.902;2024-03-29T01:22:38;6.47;;;1.50;;
22557;SDS011;11445;53.816;8.902;2024-03-29T01:25:04;2.30;;;1.60;;
22557;SDS011;11445;53.816;8.902;2024-03-29T01:27:30;5.97;;;2.03;;
22557;SDS011;11445;53.816;8.902;2024-03-29T01:29:56;3.95;;;1.55;;
22557;SDS011;11445;53.816;8.902;2024-03-29T01:32:22;3.58;;;1.70;;
22557;SDS011;11445;53.816;8.902;2024-03-29T01:34:48;7.45;;;1.65;;
22557;SDS011;11445;53.816;8.902;2024-03-29T01:37:14;5.60;;;1.67;;
22557;SDS011;11445;53.816;8.902;2024-03-29T01:39:42;6.00;;;1.73;;
22557;SDS011;11445;53.816;8.902;2024-03-29T01:42:08;6.15;;;1.85;;
22557;SDS011;11445;53.816;8.902;2024-03-29T01:44:34;4.95;;;1.90;;
22557;SDS011;11445;53.816;8.902;2024-03-29T01:47:02;3.88;;;1.70;;
22557;SDS011;11445;53.816;8.902;2024-03-29T01:49:29;7.18;;;1.80;;
22557;SDS011;11445;53.816;8.902;2024-03-29T01:51:56;5.65;;;1.80;;
22557;SDS011;11445;53.816;8.902;2024-03-29T01:54:24;4.38;;;1.60;;
22557;SDS011;11445;53.816;8.902;2024-03-29T01:56:52;4.65;;;1.63;;
22557;SDS011;11445;53.816;8.902;2024-03-29T01:59:20;5.15;;;1.80;;
22557;SDS011;11445;53.816;8.902;2024-03-29T02:01:47;5.95;;;1.90;;
22557;SDS011;11445;53.816;8.902;2024-03-29T02:04:14;5.57;;;2.05;;
22557;SDS011;11445;53.816;8.902;2024-03-29T02:06:41;6.75;;;2.00;;
22557;SDS011;11445;53.816;8.902;2024-03-29T02:09:07;5.70;;;1.63;;
22557;SDS011;11445;53.816;8.902;2024-03-29T02:11:34;5.22;;;1.65;;
22557;SDS011;11445;53.816;8.902;2024-03-29T02:14:03;3.80;;;1.85;;
22557;SDS011;11445;53.816;8.902;2024-03-29T02:16:31;4.43;;;1.80;;
22557;SDS011;11445;53.816;8.902;2024-03-29T02:18:58;3.38;;;1.50;;
22557;SDS011;11445;53.816;8.902;2024-03-29T02:21:25;4.72;;;1.70;;
22557;SDS011;11445;53.816;8.902;2024-03-29T02:24:05;3.58;;;1.73;;
22557;SDS011;11445;53.816;8.902;2024-03-29T02:26:33;6.95;;;1.52;;
22557;SDS011;11445;53.816;8.902;2024-03-29T02:29:01;5.95;;;1.33;;
22557;SDS011;11445;53.816;8.902;2024-03-29T02:31:28;7.60;;;1.50;;
22557;SDS011;11445;53.816;8.902;2024-03-29T02:33:55;4.40;;;1.60;;
22557;SDS011;11445;53.816;8.902;2024-03-29T02:36:22;4.72;;;1.55;;
22557;SDS011;11445;53.816;8.902;2024-03-29T02:38:49;4.57;;;1.40;;
22557;SDS011;11445;53.816;8.902;2024-03-29T02:41:18;3.58;;;1.48;;
22557;SDS011;11445;53.816;8.902;2024-03-29T02:43:45;10.00;;;2.13;;
22557;SDS011;11445;53.816;8.902;2024-03-29T02:46:11;5.13;;;1.70;;
22557;SDS011;11445;53.816;8.902;2024-03-29T02:48:38;3.67;;;1.65;;
22557;SDS011;11445;53.816;8.902;2024-03-29T02:51:04;5.63;;;1.50;;
22557;SDS011;11445;53.816;8.902;2024-03-29T02:53:31;2.75;;;1.55;;
22557;SDS011;11445;53.816;8.902;2024-03-29T02:55:57;3.22;;;1.45;;
22557;SDS011;11445;53.816;8.902;2024-03-29T02:58:26;9.82;;;1.90;;
22557;SDS011;11445;53.816;8.902;2024-03-29T03:00:52;5.30;;;1.63;;
22557;SDS011;11445;53.816;8.902;2024-03-29T03:03:19;4.32;;;2.00;;
22557;SDS011;11445;53.816;8.902;2024-03-29T03:05:45;4.47;;;1.65;;
22557;SDS011;11445;53.816;8.902;2024-03-29T03:08:11;4.18;;;1.75;;
22557;SDS011;11445;53.816;8.902;2024-03-29T03:10:56;8.65;;;2.17;;
22557;SDS011;11445;53.816;8.902;2024-03-29T03:13:26;7.32;;;1.65;;
22557;SDS011;11445;53.816;8.902;2024-03-29T03:15:54;6.03;;;1.67;;
22557;SDS011;11445;53.816;8.902;2024-03-29T03:18:21;6.18;;;2.13;;
22557;SDS011;11445;53.816;8.902;2024-03-29T03:20:51;4.82;;;1.65;;
22557;SDS011;11445;53.816;8.902;2024-03-29T03:23:18;4.47;;;1.63;;
22557;SDS011;11445;53.816;8.902;2024-03-29T03:25:46;4.97;;;1.83;;
22557;SDS011;11445;53.816;8.902;2024-03-29T03:28:19;4.03;;;1.50;;
22557;SDS011;11445;53.816;8.902;2024-03-29T03:30:48;4.75;;;1.50;;
22557;SDS011;11445;53.816;8.902;2024-03-29T03:33:14;3.88;;;1.30;;
22557;SDS011;11445;53.816;8.902;2024-03-29T03:35:41;5.68;;;1.50;;
22557;SDS011;11445;53.816;8.902;2024-03-29T03:38:07;3.72;;;1.63;;
22557;SDS011;11445;53.816;8.902;2024-03-29T03:40:35;1.55;;;1.42;;
22557;SDS011;11445;53.816;8.902;2024-03-29T03:43:01;12.93;;;2.58;;
22557;SDS011;11445;53.816;8.902;2024-03-29T03:45:28;2.85;;;1.60;;
22557;SDS011;11445;53.816;8.902;2024-03-29T03:47:55;5.55;;;1.30;;
22557;SDS011;11445;53.816;8.902;2024-03-29T03:50:22;2.17;;;1.23;;
22557;SDS011;11445;53.816;8.902;2024-03-29T03:52:48;5.97;;;1.30;;
22557;SDS011;11445;53.816;8.902;2024-03-29T03:55:15;3.92;;;1.30;;
22557;SDS011;11445;53.816;8.902;2024-03-29T03:57:41;7.65;;;1.23;;
22557;SDS011;11445;53.816;8.902;2024-03-29T04:00:09;2.72;;;1.25;;
22557;SDS011;11445;53.816;8.902;2024-03-29T04:02:35;5.97;;;1.50;;
22557;SDS011;11445;53.816;8.902;2024-03-29T04:05:04;2.42;;;1.40;;
22557;SDS011;11445;53.816;8.902;2024-03-29T04:07:31;3.60;;;1.17;;
22557;SDS011;11445;53.816;8.902;2024-03-29T04:09:58;4.95;;;1.10;;
22557;SDS011;11445;53.816;8.902;2024-03-29T04:12:24;7.28;;;1.40;;
22557;SDS011;11445;53.816;8.902;2024-03-29T04:14:51;4.28;;;1.30;;
22557;SDS011;11445;53.816;8.902;2024-03-29T04:17:17;13.13;;;1.13;;
22557;SDS011;11445;53.816;8.902;2024-03-29T04:19:44;3.42;;;1.10;;
22557;SDS011;11445;53.816;8.902;2024-03-29T04:22:11;2.90;;;1.40;;
22557;SDS011;11445;53.816;8.902;2024-03-29T04:24:38;6.10;;;1.20;;
22557;SDS011;11445;53.816;8.902;2024-03-29T04:27:04;4.97;;;1.30;;
22557;SDS011;11445;53.816;8.902;2024-03-29T04:29:31;5.05;;;1.48;;
22557;SDS011;11445;53.816;8.902;2024-03-29T04:31:57;4.32;;;1.63;;
22557;SDS011;11445;53.816;8.902;2024-03-29T04:34:24;5.45;;;1.52;;
22557;SDS011;11445;53.816;8.902;2024-03-29T04:36:50;8.25;;;1.63;;
22557;SDS011;11445;53.816;8.902;2024-03-29T04:39:19;4.28;;;1.10;;
22557;SDS011;11445;53.816;8.902;2024-03-29T04:41:46;2.72;;;1.25;;
22557;SDS011;11445;53.816;8.902;2024-03-29T04:44:13;5.22;;;1.75;;
22557;SDS011;11445;53.816;8.902;2024-03-29T04:46:49;4.90;;;1.73;;
22557;SDS011;11445;53.816;8.902;2024-03-29T04:49:18;1.17;;;1.00;;
22557;SDS011;11445;53.816;8.902;2024-03-29T04:51:48;8.50;;;1.50;;
22557;SDS011;11445;53.816;8.902;2024-03-29T04:54:15;4.80;;;1.52;;
22557;SDS011;11445;53.816;8.902;2024-03-29T04:56:44;5.60;;;1.38;;
22557;SDS011;11445;53.816;8.902;2024-03-29T04:59:11;3.42;;;1.25;;
22557;SDS011;11445;53.816;8.902;2024-03-29T05:01:42;3.42;;;1.30;;
22557;SDS011;11445;53.816;8.902;2024-03-29T05:04:09;5.22;;;1.73;;
22557;SDS011;11445;53.816;8.902;2024-03-29T05:06:36;4.63;;;1.30;;
22557;SDS011;11445;53.816;8.902;2024-03-29T05:09:03;5.47;;;1.75;;
22557;SDS011;11445;53.816;8.902;2024-03-29T05:11:30;3.17;;;1.30;;
22557;SDS011;11445;53.816;8.902;2024-03-29T05:13:58;4.43;;;1.15;;
22557;SDS011;11445;53.816;8.902;2024-03-29T05:16:28;5.03;;;1.52;;
22557;SDS011;11445;53.816;8.902;2024-03-29T05:18:55;5.55;;;1.10;;
22557;SDS011;11445;53.816;8.902;2024-03-29T05:21:21;5.97;;;1.30;;
22557;SDS011;11445;53.816;8.902;2024-03-29T05:23:48;2.53;;;1.00;;
22557;SDS011;11445;53.816;8.902;2024-03-29T05:26:15;4.20;;;1.30;;
22557;SDS011;11445;53.816;8.902;2024-03-29T05:28:42;3.70;;;1.00;;
22557;SDS011;11445;53.816;8.902;2024-03-29T05:31:12;3.65;;;1.13;;
22557;SDS011;11445;53.816;8.902;2024-03-29T05:33:40;3.95;;;0.80;;
22557;SDS011;11445;53.816;8.902;2024-03-29T05:36:07;6.80;;;1.08;;
22557;SDS011;11445;53.816;8.902;2024-03-29T05:38:36;1.65;;;1.02;;
22557;SDS011;11445;53.816;8.902;2024-03-29T05:41:03;4.30;;;1.27;;
22557;SDS011;11445;53.816;8.902;2024-03-29T05:43:30;4.68;;;1.25;;
22557;SDS011;11445;53.816;8.902;2024-03-29T05:45:57;4.38;;;1.80;;
22557;SDS011;11445;53.816;8.902;2024-03-29T05:48:27;6.05;;;2.30;;
22557;SDS011;11445;53.816;8.902;2024-03-29T05:50:55;5.25;;;2.25;;
22557;SDS011;11445;53.816;8.902;2024-03-29T05:53:22;6.90;;;1.83;;
22557;SDS011;11445;53.816;8.902;2024-03-29T05:55:49;4.72;;;2.00;;
22557;SDS011;11445;53.816;8.902;2024-03-29T05:58:16;7.10;;;1.52;;
22557;SDS011;11445;53.816;8.902;2024-03-29T06:00:44;6.28;;;1.40;;
22557;SDS011;11445;53.816;8.902;2024-03-29T06:03:11;5.13;;;1.27;;
22557;SDS011;11445;53.816;8.902;2024-03-29T06:05:41;3.97;;;1.27;;
22557;SDS011;11445;53.816;8.902;2024-03-29T06:08:08;5.57;;;1.20;;
22557;SDS011;11445;53.816;8.902;2024-03-29T06:10:35;6.68;;;1.52;;
22557;SDS011;11445;53.816;8.902;2024-03-29T06:13:02;5.30;;;1.33;;
22557;SDS011;11445;53.816;8.902;2024-03-29T06:15:35;8.60;;;1.98;;
22557;SDS011;11445;53.816;8.902;2024-03-29T06:18:19;3.08;;;1.10;;
22557;SDS011;11445;53.816;8.902;2024-03-29T06:20:47;1.40;;;0.88;;
22557;SDS011;11445;53.816;8.902;2024-03-29T06:23:14;3.75;;;1.20;;
22557;SDS011;11445;53.816;8.902;2024-03-29T06:25:41;6.07;;;1.30;;
22557;SDS011;11445;53.816;8.902;2024-03-29T06:28:08;5.43;;;0.90;;
22557;SDS011;11445;53.816;8.902;2024-03-29T06:30:35;2.45;;;0.90;;
22557;SDS011;11445;53.816;8.902;2024-03-29T06:33:02;5.28;;;1.05;;
22557;SDS011;11445;53.816;8.902;2024-03-29T06:35:30;3.53;;;1.00;;
22557;SDS011;11445;53.816;8.902;2024-03-29T06:37:58;3.45;;;1.00;;
22557;SDS011;11445;53.816;8.902;2024-03-29T06:40:25;4.00;;;1.10;;
22557;SDS011;11445;53.816;8.902;2024-03-29T06:42:52;6.45;;;1.70;;
22557;SDS011;11445;53.816;8.902;2024-03-29T06:45:21;5.43;;;1.38;;
22557;SDS011;11445;53.816;8.902;2024-03-29T06:47:48;4.65;;;1.00;;
22557;SDS011;11445;53.816;8.902;2024-03-29T06:50:15;3.30;;;1.70;;
22557;SDS011;11445;53.816;8.902;2024-03-29T06:52:42;8.82;;;1.10;;
22557;SDS011;11445;53.816;8.902;2024-03-29T06:55:10;2.42;;;1.63;;
22557;SDS011;11445;53.816;8.902;2024-03-29T06:57:37;3.88;;;1.17;;
22557;SDS011;11445;53.816;8.902;2024-03-29T07:00:05;1.80;;;1.17;;
22557;SDS011;11445;53.816;8.902;2024-03-29T07:02:33;4.43;;;0.90;;
22557;SDS011;11445;53.816;8.902;2024-03-29T07:05:00;4.20;;;1.15;;
22557;SDS011;11445;53.816;8.902;2024-03-29T07:07:32;6.30;;;1.20;;
22557;SDS011;11445;53.816;8.902;2024-03-29T07:09:59;6.85;;;1.00;;
22557;SDS011;11445;53.816;8.902;2024-03-29T07:12:27;3.22;;;0.95;;
22557;SDS011;11445;53.816;8.902;2024-03-29T07:14:54;6.47;;;1.17;;
22557;SDS011;11445;53.816;8.902;2024-03-29T07:17:21;4.05;;;1.20;;
22557;SDS011;11445;53.816;8.902;2024-03-29T07:19:48;2.13;;;0.98;;
22557;SDS011;11445;53.816;8.902;2024-03-29T07:22:15;5.32;;;0.98;;
22557;SDS011;11445;53.816;8.902;2024-03-29T07:24:42;5.22;;;1.13;;
22557;SDS011;11445;53.816;8.902;2024-03-29T07:27:09;7.03;;;1.30;;
22557;SDS011;11445;53.816;8.902;2024-03-29T07:29:39;3.97;;;1.42;;
22557;SDS011;11445;53.816;8.902;2024-03-29T07:32:07;6.38;;;1.30;;
22557;SDS011;11445;53.816;8.902;2024-03-29T07:34:34;6.43;;;1.08;;
22557;SDS011;11445;53.816;8.902;2024-03-29T07:37:04;2.58;;;0.90;;
22557;SDS011;11445;53.816;8.902;2024-03-29T07:39:31;5.53;;;1.60;;
22557;SDS011;11445;53.816;8.902;2024-03-29T07:41:58;4.63;;;1.10;;
22557;SDS011;11445;53.816;8.902;2024-03-29T07:44:25;3.33;;;1.20;;
22557;SDS011;11445;53.816;8.902;2024-03-29T07:46:53;7.40;;;1.50;;
22557;SDS011;11445;53.816;8.902;2024-03-29T07:49:20;5.65;;;1.02;;
22557;SDS011;11445;53.816;8.902;2024-03-29T07:51:47;3.88;;;0.88;;
22557;SDS011;11445;53.816;8.902;2024-03-29T07:54:14;4.18;;;1.10;;
22557;SDS011;11445;53.816;8.902;2024-03-29T07:56:41;3.90;;;0.85;;
22557;SDS011;11445;53.816;8.902;2024-03-29T07:59:08;3.28;;;1.02;;
22557;SDS011;11445;53.816;8.902;2024-03-29T08:01:35;6.38;;;1.00;;
22557;SDS011;11445;53.816;8.902;2024-03-29T08:04:04;2.60;;;1.00;;
22557;SDS011;11445;53.816;8.902;2024-03-29T08:06:30;2.35;;;0.93;;
22557;SDS011;11445;53.816;8.902;2024-03-29T08:08:58;4.70;;;1.20;;
22557;SDS011;11445;53.816;8.902;2024-03-29T08:11:25;5.78;;;1.00;;
22557;SDS011;11445;53.816;8.902;2024-03-29T08:13:52;2.35;;;1.08;;
22557;SDS011;11445;53.816;8.902;2024-03-29T08:16:19;3.08;;;0.75;;
22557;SDS011;11445;53.816;8.902;2024-03-29T08:18:46;7.28;;;1.70;;
22557;SDS011;11445;53.816;8.902;2024-03-29T08:21:15;2.80;;;1.00;;
22557;SDS011;11445;53.816;8.902;2024-03-29T08:23:42;8.27;;;1.15;;
22557;SDS011;11445;53.816;8.902;2024-03-29T08:26:11;6.07;;;1.25;;
22557;SDS011;11445;53.816;8.902;2024-03-29T08:28:38;5.70;;;1.45;;
22557;SDS011;11445;53.816;8.902;2024-03-29T08:31:06;1.85;;;0.80;;
22557;SDS011;11445;53.816;8.902;2024-03-29T08:33:34;3.40;;;1.27;;
22557;SDS011;11445;53.816;8.902;2024-03-29T08:36:03;1.73;;;0.65;;
22557;SDS011;11445;53.816;8.902;2024-03-29T08:38:32;1.45;;;0.80;;
22557;SDS011;11445;53.816;8.902;2024-03-29T08:40:59;1.85;;;1.00;;
22557;SDS011;11445;53.816;8.902;2024-03-29T08:43:26;1.80;;;0.60;;
22557;SDS011;11445;53.816;8.902;2024-03-29T08:45:53;6.20;;;0.90;;
22557;SDS011;11445;53.816;8.902;2024-03-29T08:48:21;3.95;;;0.70;;
22557;SDS011;11445;53.816;8.902;2024-03-29T08:50:49;1.88;;;0.73;;
22557;SDS011;11445;53.816;8.902;2024-03-29T08:53:16;2.67;;;0.65;;
22557;SDS011;11445;53.816;8.902;2024-03-29T08:55:45;1.00;;;0.57;;
22557;SDS011;11445;53.816;8.902;2024-03-29T08:58:13;3.72;;;0.70;;
22557;SDS011;11445;53.816;8.902;2024-03-29T09:00:40;2.88;;;0.82;;
22557;SDS011;11445;53.816;8.902;2024-03-29T09:03:07;2.63;;;0.85;;
22557;SDS011;11445;53.816;8.902;2024-03-29T09:05:36;2.35;;;0.73;;
22557;SDS011;11445;53.816;8.902;2024-03-29T09:08:03;2.13;;;0.95;;
22557;SDS011;11445;53.816;8.902;2024-03-29T09:10:31;5.28;;;0.70;;
22557;SDS011;11445;53.816;8.902;2024-03-29T09:12:59;2.38;;;0.90;;
22557;SDS011;11445;53.816;8.902;2024-03-29T09:15:26;1.08;;;0.55;;
22557;SDS011;11445;53.816;8.902;2024-03-29T09:17:53;1.17;;;0.88;;
22557;SDS011;11445;53.816;8.902;2024-03-29T09:20:20;1.70;;;0.80;;
22557;SDS011;11445;53.816;8.902;2024-03-29T09:22:49;1.00;;;0.60;;
22557;SDS011;11445;53.816;8.902;2024-03-29T09:25:17;3.10;;;0.80;;
22557;SDS011;11445;53.816;8.902;2024-03-29T09:27:45;2.47;;;0.80;;
22557;SDS011;11445;53.816;8.902;2024-03-29T09:30:15;2.80;;;0.90;;
22557;SDS011;11445;53.816;8.902;2024-03-29T09:32:43;4.25;;;0.88;;
22557;SDS011;11445;53.816;8.902;2024-03-29T09:35:10;7.18;;;0.65;;
22557;SDS011;11445;53.816;8.902;2024-03-29T09:37:38;3.63;;;0.80;;
22557;SDS011;11445;53.816;8.902;2024-03-29T09:40:05;5.65;;;0.90;;
22557;SDS011;11445;53.816;8.902;2024-03-29T09:42:33;1.33;;;0.50;;
22557;SDS011;11445;53.816;8.902;2024-03-29T09:45:02;1.38;;;0.80;;
22557;SDS011;11445;53.816;8.902;2024-03-29T09:47:32;2.30;;;0.80;;
22557;SDS011;11445;53.816;8.902;2024-03-29T09:50:02;3.60;;;0.95;;
22557;SDS011;11445;53.816;8.902;2024-03-29T09:52:31;2.72;;;1.13;;
22557;SDS011;11445;53.816;8.902;2024-03-29T09:54:58;4.22;;;1.20;;
22557;SDS011;11445;53.816;8.902;2024-03-29T09:57:27;3.95;;;1.13;;
22557;SDS011;11445;53.816;8.902;2024-03-29T09:59:55;2.08;;;0.90;;
22557;SDS011;11445;53.816;8.902;2024-03-29T10:02:22;2.38;;;1.20;;
22557;SDS011;11445;53.816;8.902;2024-03-29T10:04:56;5.13;;;0.95;;
22557;SDS011;11445;53.816;8.902;2024-03-29T10:07:28;3.25;;;0.98;;
22557;SDS011;11445;53.816;8.902;2024-03-29T10:09:57;1.58;;;0.90;;
22557;SDS011;11445;53.816;8.902;2024-03-29T10:12:24;2.17;;;0.88;;
22557;SDS011;11445;53.816;8.902;2024-03-29T10:14:51;1.33;;;0.80;;
22557;SDS011;11445;53.816;8.902;2024-03-29T10:17:20;1.52;;;0.77;;
22557;SDS011;11445;53.816;8.902;2024-03-29T10:19:47;4.20;;;0.90;;
22557;SDS011;11445;53.816;8.902;2024-03-29T10:22:16;2.15;;;0.90;;
22557;SDS011;11445;53.816;8.902;2024-03-29T10:24:43;2.53;;;1.13;;
22557;SDS011;11445;53.816;8.902;2024-03-29T10:27:10;2.20;;;1.10;;
22557;SDS011;11445;53.816;8.902;2024-03-29T10:29:37;4.53;;;1.80;;
22557;SDS011;11445;53.816;8.902;2024-03-29T10:32:06;2.33;;;1.05;;
22557;SDS011;11445;53.816;8.902;2024-03-29T10:34:34;3.63;;;1.10;;
22557;SDS011;11445;53.816;8.902;2024-03-29T10:37:03;1.58;;;1.10;;
22557;SDS011;11445;53.816;8.902;2024-03-29T10:39:31;4.53;;;1.20;;
22557;SDS011;11445;53.816;8.902;2024-03-29T10:41:59;1.05;;;0.68;;
22557;SDS011;11445;53.816;8.902;2024-03-29T10:44:28;2.47;;;0.80;;
22557;SDS011;11445;53.816;8.902;2024-03-29T10:46:56;2.13;;;1.30;;
22557;SDS011;11445;53.816;8.902;2024-03-29T10:49:24;3.20;;;0.90;;
22557;SDS011;11445;53.816;8.902;2024-03-29T10:51:51;4.05;;;1.50;;
22557;SDS011;11445;53.816;8.902;2024-03-29T10:54:22;3.60;;;1.02;;
22557;SDS011;11445;53.816;8.902;2024-03-29T10:56:53;3.45;;;1.60;;
22557;SDS011;11445;53.816;8.902;2024-03-29T10:59:27;4.38;;;1.80;;
22557;SDS011;11445;53.816;8.902;2024-03-29T11:02:01;3.22;;;1.13;;
22557;SDS011;11445;53.816;8.902;2024-03-29T11:04:37;4.78;;;1.23;;
22557;SDS011;11445;53.816;8.902;2024-03-29T11:07:11;3.10;;;1.60;;
22557;SDS011;11445;53.816;8.902;2024-03-29T11:09:43;2.15;;;1.15;;
22557;SDS011;11445;53.816;8.902;2024-03-29T11:12:17;4.35;;;1.38;;
22557;SDS011;11445;53.816;8.902;2024-03-29T11:14:49;2.35;;;0.98;;
22557;SDS011;11445;53.816;8.902;2024-03-29T11:19:47;6.38;;;1.33;;
22557;SDS011;11445;53.816;8.902;2024-03-29T11:22:15;2.22;;;1.40;;
22557;SDS011;11445;53.816;8.902;2024-03-29T11:24:42;7.00;;;1.10;;
22557;SDS011;11445;53.816;8.902;2024-03-29T11:27:10;2.75;;;1.02;;
22557;SDS011;11445;53.816;8.902;2024-03-29T11:29:40;2.72;;;1.35;;
22557;SDS011;11445;53.816;8.902;2024-03-29T11:34:42;1.10;;;0.90;;
22557;SDS011;11445;53.816;8.902;2024-03-29T11:37:11;3.45;;;1.38;;
22557;SDS011;11445;53.816;8.902;2024-03-29T11:39:38;4.47;;;1.42;;
22557;SDS011;11445;53.816;8.902;2024-03-29T11:42:06;3.08;;;1.50;;
22557;SDS011;11445;53.816;8.902;2024-03-29T11:44:33;1.88;;;1.40;;
22557;SDS011;11445;53.816;8.902;2024-03-29T11:47:02;3.95;;;1.40;;
22557;SDS011;11445;53.816;8.902;2024-03-29T11:49:31;2.20;;;1.40;;
22557;SDS011;11445;53.816;8.902;2024-03-29T11:52:02;2.50;;;1.65;;
22557;SDS011;11445;53.816;8.902;2024-03-29T11:54:36;4.13;;;1.65;;
22557;SDS011;11445;53.816;8.902;2024-03-29T11:57:04;3.28;;;1.35;;
22557;SDS011;11445;53.816;8.902;2024-03-29T11:59:31;2.30;;;1.20;;
22557;SDS011;11445;53.816;8.902;2024-03-29T12:01:58;1.83;;;1.60;;
22557;SDS011;11445;53.816;8.902;2024-03-29T12:04:26;3.08;;;1.65;;
22557;SDS011;11445;53.816;8.902;2024-03-29T12:06:53;2.65;;;1.17;;
22557;SDS011;11445;53.816;8.902;2024-03-29T12:09:21;6.43;;;1.85;;
22557;SDS011;11445;53.816;8.902;2024-03-29T12:11:48;3.45;;;1.65;;
22557;SDS011;11445;53.816;8.902;2024-03-29T12:14:15;4.07;;;1.70;;
22557;SDS011;11445;53.816;8.902;2024-03-29T12:16:43;9.52;;;1.80;;
22557;SDS011;11445;53.816;8.902;2024-03-29T12:21:55;2.13;;;1.42;;
22557;SDS011;11445;53.816;8.902;2024-03-29T12:24:22;4.95;;;2.20;;
22557;SDS011;11445;53.816;8.902;2024-03-29T12:26:49;4.00;;;2.47;;
22557;SDS011;11445;53.816;8.902;2024-03-29T12:29:17;5.18;;;2.00;;
22557;SDS011;11445;53.816;8.902;2024-03-29T12:31:44;3.75;;;1.90;;
22557;SDS011;11445;53.816;8.902;2024-03-29T12:34:21;4.25;;;1.70;;
22557;SDS011;11445;53.816;8.902;2024-03-29T12:36:50;8.85;;;1.75;;
22557;SDS011;11445;53.816;8.902;2024-03-29T12:39:17;3.50;;;2.10;;
22557;SDS011;11445;53.816;8.902;2024-03-29T12:41:46;3.08;;;2.28;;
22557;SDS011;11445;53.816;8.902;2024-03-29T12:44:13;3.58;;;2.28;;
22557;SDS011;11445;53.816;8.902;2024-03-29T12:46:40;4.28;;;2.33;;
22557;SDS011;11445;53.816;8.902;2024-03-29T12:49:09;5.65;;;2.60;;
22557;SDS011;11445;53.816;8.902;2024-03-29T12:51:38;3.58;;;2.35;;
22557;SDS011;11445;53.816;8.902;2024-03-29T12:54:07;3.67;;;2.65;;
22557;SDS011;11445;53.816;8.902;2024-03-29T12:56:35;2.67;;;2.35;;
22557;SDS011;11445;53.816;8.902;2024-03-29T12:59:05;5.97;;;2.70;;
22557;SDS011;11445;53.816;8.902;2024-03-29T13:01:32;4.20;;;2.53;;
22557;SDS011;11445;53.816;8.902;2024-03-29T13:03:59;3.67;;;2.10;;
22557;SDS011;11445;53.816;8.902;2024-03-29T13:06:27;5.10;;;2.40;;
22557;SDS011;11445;53.816;8.902;2024-03-29T13:08:54;7.57;;;2.38;;
22557;SDS011;11445;53.816;8.902;2024-03-29T13:11:23;7.25;;;2.08;;
22557;SDS011;11445;53.816;8.902;2024-03-29T13:13:50;6.78;;;2.22;;
22557;SDS011;11445;53.816;8.902;2024-03-29T13:16:17;3.40;;;1.27;;
22557;SDS011;11445;53.816;8.902;2024-03-29T13:18:44;4.63;;;1.40;;
22557;SDS011;11445;53.816;8.902;2024-03-29T13:21:11;1.70;;;1.40;;
22557;SDS011;11445;53.816;8.902;2024-03-29T13:23:38;5.72;;;1.85;;
22557;SDS011;11445;53.816;8.902;2024-03-29T13:26:05;2.35;;;1.50;;
22557;SDS011;11445;53.816;8.902;2024-03-29T13:28:34;2.83;;;1.65;;
22557;SDS011;11445;53.816;8.902;2024-03-29T13:31:01;4.80;;;1.65;;
22557;SDS011;11445;53.816;8.902;2024-03-29T13:33:27;2.92;;;1.42;;
22557;SDS011;11445;53.816;8.902;2024-03-29T13:35:57;3.38;;;1.63;;
22557;SDS011;11445;53.816;8.902;2024-03-29T13:38:24;2.55;;;1.95;;
22557;SDS011;11445;53.816;8.902;2024-03-29T13:40:51;3.38;;;1.90;;
22557;SDS011;11445;53.816;8.902;2024-03-29T13:43:19;4.65;;;1.90;;
22557;SDS011;11445;53.816;8.902;2024-03-29T13:45:49;4.60;;;1.98;;
22557;SDS011;11445;53.816;8.902;2024-03-29T13:48:17;5.15;;;2.10;;
22557;SDS011;11445;53.816;8.902;2024-03-29T13:50:44;4.63;;;1.90;;
22557;SDS011;11445;53.816;8.902;2024-03-29T13:53:11;3.65;;;1.77;;
22557;SDS011;11445;53.816;8.902;2024-03-29T13:55:40;6.97;;;2.17;;
22557;SDS011;11445;53.816;8.902;2024-03-29T13:58:07;4.63;;;2.10;;
22557;SDS011;11445;53.816;8.902;2024-03-29T14:00:34;3.45;;;2.00;;
22557;SDS011;11445;53.816;8.902;2024-03-29T14:03:02;2.22;;;1.85;;
22557;SDS011;11445;53.816;8.902;2024-03-29T14:05:29;2.35;;;2.15;;
22557;SDS011;11445;53.816;8.902;2024-03-29T14:07:57;4.05;;;2.55;;
22557;SDS011;11445;53.816;8.902;2024-03-29T14:10:24;5.47;;;2.40;;
22557;SDS011;11445;53.816;8.902;2024-03-29T14:12:51;3.67;;;2.50;;
22557;SDS011;11445;53.816;8.902;2024-03-29T14:15:19;2.25;;;1.75;;
22557;SDS011;11445;53.816;8.902;2024-03-29T14:17:46;3.35;;;2.40;;
22557;SDS011;11445;53.816;8.902;2024-03-29T14:20:14;5.15;;;2.63;;
22557;SDS011;11445;53.816;8.902;2024-03-29T14:22:41;5.18;;;1.92;;
22557;SDS011;11445;53.816;8.902;2024-03-29T14:25:08;1.95;;;1.75;;
22557;SDS011;11445;53.816;8.902;2024-03-29T14:27:36;4.90;;;2.28;;
22557;SDS011;11445;53.816;8.902;2024-03-29T14:30:12;4.35;;;1.90;;
22557;SDS011;11445;53.816;8.902;2024-03-29T14:32:40;2.90;;;1.67;;
22557;SDS011;11445;53.816;8.902;2024-03-29T14:35:12;3.58;;;1.70;;
22557;SDS011;11445;53.816;8.902;2024-03-29T14:37:41;2.88;;;1.70;;
22557;SDS011;11445;53.816;8.902;2024-03-29T14:40:08;4.13;;;2.00;;
22557;SDS011;11445;53.816;8.902;2024-03-29T14:42:37;4.72;;;2.05;;
22557;SDS011;11445;53.816;8.902;2024-03-29T14:45:04;4.63;;;2.10;;
22557;SDS011;11445;53.816;8.902;2024-03-29T14:47:32;5.05;;;2.15;;
22557;SDS011;11445;53.816;8.902;2024-03-29T14:50:00;5.18;;;1.77;;
22557;SDS011;11445;53.816;8.902;2024-03-29T14:52:30;2.47;;;1.90;;
22557;SDS011;11445;53.816;8.902;2024-03-29T14:54:58;6.13;;;2.08;;
22557;SDS011;11445;53.816;8.902;2024-03-29T14:57:25;3.60;;;2.30;;
22557;SDS011;11445;53.816;8.902;2024-03-29T14:59:52;3.10;;;1.85;;